• Join FlightAware (Why Join?)
  • Login
  • US Flag 
10:38AM EDT


 

Airport Tracker/Info


-or-


 

Live Flight TrackerFlight Track Log ✈ SWA3232 ✈ 13-May-2013 ✈ KMHT - KMCO

Flight Track Log - Related Links

Times and Time Zones

All times are in EDT time to prevent confusion due to time zone crossing. See the SWA3232 flight status page for this flight to view local times or setup timezone preferences in your user account.

Time Position Orientation Groundspeed Altitude Reporting Facility
EDT Latitude Longitude Course Direction KTS MPH feet Rate Location/Type
07:53AM 42.9500 -71.4500 348° North 166 191 1,400  Level KA90
07:54AM 43.0131 -71.4689 348° North 228 262 4,200 2,400 Climbing Boston Center
07:55AM 43.0478 -71.3917 58° Northeast 206 237 6,800 2,940 Climbing Boston Center
07:56AM 43.0572 -71.2778 83° East 274 315 10,100 2,100 Climbing Boston Center
07:57AM 43.0600 -71.1528 88° East 332 382 11,100 1,860 Climbing Boston Center
07:58AM 43.0642 -70.9850 88° East 393 452 13,900 2,520 Climbing Boston Center
07:59AM 42.9858 -70.8933 139° Southeast 373 429 16,200 2,400 Climbing Boston Center
08:00AM 42.8967 -70.9267 195° South 307 353 18,700 2,520 Climbing Boston Center
08:01AM 42.8078 -70.9683 199° South 317 365 21,300 2,760 Climbing Boston Center
08:02AM 42.7186 -71.0158 201° Southwest 329 379 24,300 1,920 Climbing Boston Center
08:03AM 42.6575 -71.1161 230° Southwest 334 384 25,200 1,200 Climbing Boston Center
08:04AM 42.6003 -71.2217 234° Southwest 340 391 26,800 1,680 Climbing Boston Center
08:05AM 42.5408 -71.3328 234° Southwest 360 414 28,600 1,740 Climbing Boston Center
08:06AM 42.4836 -71.4406 234° Southwest 360 414 30,300 1,440 Climbing Boston Center
08:07AM 42.4158 -71.5569 232° Southwest 366 421 31,500 1,080 Climbing Boston Center
08:08AM 42.3561 -71.6675 234° Southwest 372 428 32,500 900 Climbing Boston Center
08:09AM 42.2964 -71.7778 234° Southwest 372 428 33,300 780 Climbing Boston Center
08:10AM 42.2322 -71.8906 232° Southwest 377 434 34,100 900 Climbing Boston Center
08:11AM 42.1703 -72.0086 235° Southwest 382 440 35,200 900 Climbing Boston Center
08:12AM 42.1061 -72.1239 233° Southwest 387 445 36,000 360 Climbing Boston Center
08:13AM 42.0417 -72.2361 232° Southwest 387 445 36,000  Level Boston Center
08:14AM 41.9794 -72.3508 234° Southwest 387 445 36,000  Level Boston Center
08:15AM 41.9169 -72.4653 234° Southwest 387 445 36,000  Level Boston Center
08:16AM 41.8522 -72.5794 233° Southwest 387 445 36,000  Level Boston Center
08:17AM 41.7958 -72.6794 233° Southwest 387 445 36,000  Level Boston Center
08:18AM 41.7308 -72.7933 233° Southwest 387 445 36,000  Level Boston Center
08:19AM 41.6658 -72.9069 233° Southwest 387 445 36,000  Level Boston Center
08:20AM 41.6028 -73.0203 233° Southwest 387 445 36,000  Level Boston Center
08:21AM 41.5353 -73.1417 233° Southwest 380 437 36,000  Level Boston Center
08:22AM 41.4700 -73.2519 232° Southwest 380 437 36,000  Level Boston Center
08:24AM 41.3628 -73.4386 233° Southwest 391 450 36,000  Level New York Center
08:25AM 41.2975 -73.5547 233° Southwest 397 457 36,000  Level New York Center
08:26AM 41.2283 -73.6622 229° Southwest 397 457 36,000  Level New York Center
08:27AM 41.1589 -73.7694 229° Southwest 392 451 36,000  Level New York Center
08:28AM 41.0917 -73.8767 230° Southwest 392 451 36,000  Level New York Center
08:29AM 41.0222 -73.9833 229° Southwest 392 451 36,000  Level New York Center
08:30AM 40.9544 -74.0956 231° Southwest 387 445 36,000  Level New York Center
08:31AM 40.8847 -74.1992 228° Southwest 387 445 36,000  Level New York Center
08:32AM 40.8150 -74.3025 228° Southwest 387 445 36,000  Level New York Center
08:33AM 40.7472 -74.4114 231° Southwest 387 445 36,000  Level New York Center
08:34AM 40.6794 -74.5144 229° Southwest 387 445 36,000  Level New York Center
08:35AM 40.6092 -74.6200 229° Southwest 387 445 36,000  Level New York Center
08:36AM 40.5431 -74.7283 231° Southwest 387 445 36,000  Level New York Center
08:37AM 40.4750 -74.8333 230° Southwest 387 445 36,000  Level New York Center
08:38AM 40.4067 -74.9383 230° Southwest 387 445 36,000  Level New York Center
08:39AM 40.3386 -75.0406 229° Southwest 387 445 36,000  Level New York Center
08:40AM 40.2678 -75.1478 229° Southwest 387 445 36,000  Level New York Center
08:41AM 40.1972 -75.2519 228° Southwest 387 445 36,000  Level New York Center
08:42AM 40.1306 -75.3589 231° Southwest 387 445 36,000  Level New York Center
08:43AM 40.0578 -75.4628 228° Southwest 387 445 36,000  Level New York Center
08:44AM 39.9886 -75.5719 230° Southwest 387 445 36,000  Level New York Center
08:45AM 39.9108 -75.6908 230° Southwest 392 451 36,000  Level New York Center
08:47AM 39.8008 -75.8669 231° Southwest 390 449 36,000  Level Washington Center
08:48AM 39.7339 -75.9719 230° Southwest 395 455 36,000  Level Washington Center
08:49AM 39.6647 -76.0794 230° Southwest 390 449 36,000  Level Washington Center
08:50AM 39.5975 -76.1839 230° Southwest 390 449 36,000  Level Washington Center
08:51AM 39.5283 -76.2911 230° Southwest 390 449 36,000  Level Washington Center
08:52AM 39.4608 -76.3953 230° Southwest 390 449 36,000  Level Washington Center
08:53AM 39.3933 -76.5019 231° Southwest 390 449 36,000  Level Washington Center
08:54AM 39.3217 -76.6056 228° Southwest 395 455 36,000  Level Washington Center
08:55AM 39.2542 -76.7092 230° Southwest 390 449 36,000  Level Washington Center
08:56AM 39.1886 -76.8153 231° Southwest 385 443 36,000  Level Washington Center
08:57AM 39.1208 -76.9214 231° Southwest 385 443 36,000  Level Washington Center
08:58AM 39.0528 -77.0242 230° Southwest 380 437 36,000  Level Washington Center
08:59AM 38.9683 -77.1242 223° Southwest 380 437 36,000  Level Washington Center
09:00AM 38.8836 -77.2131 219° Southwest 385 443 36,000  Level Washington Center
09:01AM 38.8011 -77.3044 221° Southwest 396 456 36,000  Level Washington Center
09:02AM 38.7206 -77.3931 221° Southwest 396 456 36,000  Level Washington Center
09:03AM 38.6550 -77.4633 220° Southwest 391 450 36,000  Level Washington Center
09:04AM 38.5572 -77.5722 221° Southwest 391 450 36,000  Level Washington Center
09:05AM 38.4767 -77.6603 221° Southwest 391 450 36,000  Level Washington Center
09:06AM 38.3936 -77.7481 220° Southwest 386 444 36,000  Level Washington Center
09:07AM 38.3108 -77.8383 221° Southwest 376 433 36,000  Level Washington Center
09:08AM 38.2278 -77.9283 220° Southwest 392 451 36,000  Level Washington Center
09:09AM 38.1425 -78.0181 220° Southwest 397 457 36,000  Level Washington Center
09:10AM 38.0614 -78.1078 221° Southwest 397 457 36,000  Level Washington Center
09:11AM 37.9783 -78.1867 217° Southwest 391 450 36,000  Level Washington Center
09:12AM 37.9036 -78.2631 219° Southwest 385 443 36,000  Level Washington Center
09:13AM 37.8056 -78.3569 217° Southwest 391 450 36,000  Level Washington Center
09:14AM 37.7203 -78.4350 216° Southwest 396 456 36,000  Level Washington Center
09:15AM 37.6350 -78.5158 217° Southwest 396 456 36,000  Level Washington Center
09:16AM 37.5453 -78.5989 216° Southwest 396 456 36,000  Level Washington Center
09:17AM 37.4683 -78.6742 218° Southwest 396 456 36,000  Level Washington Center
09:18AM 37.3808 -78.7544 216° Southwest 401 461 36,000  Level Washington Center
09:19AM 37.2908 -78.8342 215° Southwest 401 461 36,000  Level Washington Center
09:20AM 37.2031 -78.9164 217° Southwest 401 461 36,000  Level Washington Center
09:21AM 37.1153 -78.9986 217° Southwest 401 461 36,000  Level Washington Center
09:22AM 37.0208 -79.0881 217° Southwest 401 461 36,000  Level Washington Center
09:23AM 36.9353 -79.1675 217° Southwest 396 456 36,000  Level Washington Center
09:24AM 36.8472 -79.2464 216° Southwest 396 456 36,000  Level Washington Center
09:25AM 36.7614 -79.3253 216° Southwest 396 456 36,000  Level Washington Center
09:26AM 36.6733 -79.4039 216° Southwest 396 456 36,000  Level Washington Center
09:27AM 36.5981 -79.4753 217° Southwest 396 456 36,000  Level Washington Center
09:28AM 36.5119 -79.5536 216° Southwest 396 456 36,000  Level Washington Center
09:29AM 36.3831 -79.6675 215° Southwest 401 461 36,000  Level Atlanta Center
09:30AM 36.3042 -79.7414 217° Southwest 401 461 36,000  Level Atlanta Center
09:31AM 36.2150 -79.8183 215° Southwest 396 456 36,000  Level Atlanta Center
09:32AM 36.1281 -79.8972 216° Southwest 396 456 36,000  Level Atlanta Center
09:33AM 36.0347 -79.9767 215° Southwest 396 456 36,000  Level Atlanta Center
09:34AM 35.9131 -80.0186 196° South 404 465 36,000  Level Atlanta Center
09:35AM 35.8017 -80.0572 196° South 409 471 36,000  Level Atlanta Center
09:36AM 35.6903 -80.0908 194° South 414 476 36,000  Level Atlanta Center
09:37AM 35.5811 -80.1319 197° South 414 476 36,000  Level Atlanta Center
09:38AM 35.4839 -80.1647 195° South 414 476 36,000  Level Atlanta Center
09:39AM 35.3722 -80.1978 194° South 415 478 36,000  Level Atlanta Center
09:40AM 35.2669 -80.2308 194° South 408 470 36,000  Level Atlanta Center
09:42AM 35.0469 -80.3064 196° South 411 473 36,000  Level Jacksonville Center
09:43AM 34.9392 -80.3375 193° South 411 473 36,000  Level Jacksonville Center
09:44AM 34.8294 -80.3736 195° South 411 473 36,000  Level Jacksonville Center
09:45AM 34.7256 -80.4044 194° South 405 466 36,000  Level Jacksonville Center
09:46AM 34.6200 -80.4403 196° South 400 460 36,000  Level Jacksonville Center
09:47AM 34.5122 -80.4736 194° South 395 455 36,000  Level Jacksonville Center
09:48AM 34.4086 -80.5067 195° South 395 455 36,000  Level Jacksonville Center
09:49AM 34.3047 -80.5397 195° South 395 455 36,000  Level Jacksonville Center
09:50AM 34.2053 -80.5700 194° South 395 455 36,000  Level Jacksonville Center
09:51AM 34.1014 -80.6028 195° South 395 455 36,000  Level Jacksonville Center
09:52AM 33.9956 -80.6358 195° South 395 455 36,000  Level Jacksonville Center
09:53AM 33.8919 -80.6708 196° South 395 455 36,000  Level Jacksonville Center
09:54AM 33.7903 -80.7033 195° South 390 449 36,000  Level Jacksonville Center
09:55AM 33.6864 -80.7336 194° South 390 449 36,000  Level Jacksonville Center
09:56AM 33.5828 -80.7658 195° South 390 449 36,000  Level Jacksonville Center
09:57AM 33.4789 -80.7983 195° South 390 449 36,000  Level Jacksonville Center
09:58AM 33.3731 -80.8281 193° South 390 449 36,000  Level Jacksonville Center
09:59AM 33.2692 -80.8628 196° South 390 449 36,000  Level Jacksonville Center
10:00AM 33.1631 -80.8925 193° South 390 449 36,000  Level Jacksonville Center
10:01AM 33.0594 -80.9272 196° South 390 449 36,000  Level Jacksonville Center
10:02AM 32.9533 -80.9567 193° South 390 449 36,000  Level Jacksonville Center
10:03AM 32.8453 -80.9911 195° South 395 455 36,000  Level Jacksonville Center
10:04AM 32.7394 -81.0231 194° South 395 455 36,000  Level Jacksonville Center
10:05AM 32.6289 -81.0425 188° South 395 455 36,000  Level Jacksonville Center
10:06AM 32.5100 -81.0425 180° South 407 468 36,000  Level Jacksonville Center
10:07AM 32.3806 -81.0475 182° South 421 484 36,000  Level Jacksonville Center
10:08AM 32.2636 -81.0475 180° South 427 491 36,000  Level Jacksonville Center
10:09AM 32.1572 -81.0472 180° South 419 482 36,000  Level Jacksonville Center
10:10AM 32.0217 -81.0525 182° South 425 489 36,000  Level Jacksonville Center
10:11AM 31.9047 -81.0572 182° South 427 491 36,000  Level Jacksonville Center
10:12AM 31.7983 -81.0569 180° South 427 491 36,000  Level Jacksonville Center
10:13AM 31.6689 -81.0594 181° South 422 486 36,000  Level Jacksonville Center
10:14AM 31.5522 -81.0667 183° South 427 491 36,000  Level Jacksonville Center
10:15AM 31.4414 -81.0664 180° South 427 491 36,000  Level Jacksonville Center
10:16AM 31.3100 -81.0714 182° South 437 503 36,000  Level Jacksonville Center
10:17AM 31.1911 -81.0736 181° South 431 496 36,000  Level Jacksonville Center
10:18AM 31.0700 -81.0758 181° South 431 496 36,000  Level Jacksonville Center
10:19AM 30.9508 -81.0783 181° South 436 502 36,000 -240 Level Jacksonville Center
10:20AM 30.8319 -81.0831 182° South 436 502 35,600 -720 Descending Jacksonville Center
10:21AM 30.7108 -81.0828 180° South 436 502 34,600 -840 Descending Jacksonville Center
10:22AM 30.5900 -81.0875 182° South 441 507 34,000 -300 Descending Jacksonville Center
10:23AM 30.4833 -81.0894 181° South 434 499 34,000  Level Jacksonville Center
10:24AM 30.3686 -81.0917 181° South 429 494 34,000 -480 Level Jacksonville Center
10:25AM 30.2517 -81.0939 181° South 424 488 33,100 -960 Descending Jacksonville Center
10:26AM 30.1306 -81.0961 181° South 424 488 32,100 -960 Descending Jacksonville Center
10:27AM 30.0075 -81.1008 182° South 429 494 31,200 -900 Descending Jacksonville Center
10:28AM 29.8822 -81.1031 181° South 442 509 30,300 -960 Descending Jacksonville Center
10:29AM 29.7550 -81.1056 181° South 448 516 29,300 -2,100 Descending Jacksonville Center
10:30AM 29.6297 -81.1103 182° South 454 522 26,100 -3,000 Descending Jacksonville Center
10:31AM 29.5047 -81.1125 181° South 460 529 23,300 -2,760 Descending Jacksonville Center
10:32AM 29.3897 -81.1144 181° South 441 507 20,600 -2,700 Descending Jacksonville Center
10:33AM 29.2731 -81.1167 181° South 430 495 18,000 -2,640 Descending Jacksonville Center
10:34AM 29.1642 -81.0997 172° South 412 474 15,400 -2,640 Descending Jacksonville Center
10:35AM 29.0556 -81.0944 178° South 402 463 12,800 -1,740 Descending Jacksonville Center
10:36AM 28.9489 -81.0822 174° South 396 456 12,000 -660 Descending Jacksonville Center
10:37AM 28.8489 -81.0958 187° South 375 432 11,500 -840 Descending Jacksonville Center
10:38AM 28.8000 -81.1167 200° South 356 410 10,900 -1,020 Descending Orlando TRACON
10:39AM 28.7000 -81.1333 188° South 324 373 10,000 -480 Descending Orlando TRACON
10:40AM 28.6167 -81.1667 199° South 336 387 10,000  Level Orlando TRACON
10:41AM 28.5333 -81.1833 190° South 319 367 10,000 -720 Level Orlando TRACON
10:42AM 28.4500 -81.1833 180° South 294 338 8,600 -1,080 Descending Orlando TRACON
10:42AM 28.3833 -81.1833 180° South 251 289 8,000 -840 Descending Orlando TRACON
10:43AM 28.3167 -81.2000 192° South 176 203 7,100 -1,440 Descending Orlando TRACON
10:44AM 28.3000 -81.2333 240° Southwest 159 183 5,200 -1,860 Descending Orlando TRACON
10:45AM 28.3000 -81.2667 270° West 141 162 3,400 -1,800 Descending Orlando TRACON
10:46AM 28.3333 -81.2833 336° Northwest 151 174 1,700 -1,260 Descending Orlando TRACON
10:48AM 28.3833 -81.2833 360° North 140 161 800 -840 Descending Orlando TRACON
10:50AM 28.4167 -81.3000 336° Northwest  Level FlightAware Approximate
10:57AM 28.4294 -81.3090 336° Northwest  Level Estimated
10:58AM 28.4294 -81.3090 336° Northwest  Level Estimated
10:59AM 28.4294 -81.3090 336° Northwest  Level Estimated
11:00AM 28.4294 -81.3090 336° Northwest  Level Estimated